createdAt,value
2019-04-07T00:00:54.540Z,100448.78
2019-04-07T00:03:28.138Z,100445.77
2019-04-07T00:06:01.480Z,100449.64
2019-04-07T00:08:35.128Z,100447.48
2019-04-07T00:11:08.488Z,100442.31
2019-04-07T00:13:41.858Z,100449.27
2019-04-07T00:16:15.720Z,100443.66
2019-04-07T00:18:49.560Z,100436.70
2019-04-07T00:21:24.038Z,100439.75
2019-04-07T00:23:58.696Z,100438.86
2019-04-07T00:26:32.132Z,100441.50
2019-04-07T00:29:05.531Z,100426.77
2019-04-07T00:31:39.798Z,100438.94
2019-04-07T00:34:13.195Z,100430.77
2019-04-07T00:36:46.861Z,100432.97
2019-04-07T00:39:20.857Z,100430.36
2019-04-07T00:41:54.278Z,100436.43
2019-04-07T00:44:27.891Z,100432.12
2019-04-07T00:47:01.445Z,100439.08
2019-04-07T00:49:34.905Z,100433.46
2019-04-07T00:52:08.369Z,100425.69
2019-04-07T00:54:43.320Z,100430.00
2019-04-07T00:57:17.709Z,100432.20
2019-04-07T00:59:51.486Z,100427.84
2019-04-07T01:02:25.947Z,100341.39
2019-04-07T01:04:59.883Z,100431.39
2019-04-07T01:07:33.459Z,100428.38
2019-04-07T01:10:06.942Z,100421.42
2019-04-07T01:12:40.284Z,100427.94
2019-04-07T01:15:14.052Z,100423.63
2019-04-07T01:17:47.343Z,100418.41
2019-04-07T01:20:20.677Z,100422.36
2019-04-07T01:22:54.249Z,100421.10
2019-04-07T01:25:27.605Z,100424.11
2019-04-07T01:28:00.937Z,100418.91
2019-04-07T01:30:34.942Z,100413.73
2019-04-07T01:33:08.788Z,100415.08
2019-04-07T01:35:48.088Z,100414.22
2019-04-07T01:38:17.873Z,100415.08
2019-04-07T01:40:51.926Z,100410.78
2019-04-07T01:43:25.905Z,100415.98
2019-04-07T01:45:59.941Z,100417.28
2019-04-07T01:48:33.322Z,100410.81
2019-04-07T01:51:08.142Z,100413.46
2019-04-07T01:53:42.011Z,100415.66
2019-04-07T01:56:15.727Z,100413.50
2019-04-07T01:58:49.402Z,100413.09
2019-04-07T02:01:23.069Z,100415.70
2019-04-07T02:03:56.570Z,100413.52
2019-04-07T02:06:30.032Z,100410.05
2019-04-07T02:09:07.132Z,100403.98
2019-04-07T02:11:40.441Z,100414.00
2019-04-07T02:14:13.837Z,100410.14
2019-04-07T02:16:47.553Z,100416.23
2019-04-07T02:19:21.591Z,100415.83
2019-04-07T02:21:55.705Z,100409.32
2019-04-07T02:24:29.903Z,100411.52
2019-04-07T02:27:04.015Z,100407.61
2019-04-07T02:29:37.449Z,100413.67
2019-04-07T02:32:10.892Z,100409.32
2019-04-07T02:34:45.522Z,100412.38
2019-04-07T02:37:19.290Z,100414.58
2019-04-07T02:39:52.836Z,100412.42
2019-04-07T02:42:26.711Z,100408.11
2019-04-07T02:45:00.112Z,100408.97
2019-04-07T02:47:33.452Z,100411.56
2019-04-07T02:50:07.191Z,100408.15
2019-04-07T02:52:40.849Z,100409.45
2019-04-07T02:55:14.418Z,100409.49
2019-04-07T02:57:48.705Z,100408.15
2019-04-07T03:00:24.458Z,100404.28
2019-04-07T03:02:58.211Z,100406.48
2019-04-07T03:05:31.737Z,100406.48
2019-04-07T03:08:05.762Z,100409.53
2019-04-07T03:10:39.335Z,100410.84
2019-04-07T03:13:12.802Z,100412.14
2019-04-07T03:15:48.409Z,100416.49
2019-04-07T03:18:25.244Z,100413.03
2019-04-07T03:20:59.193Z,100414.78
2019-04-07T03:23:32.783Z,100418.73
2019-04-07T03:26:06.028Z,100418.32
2019-04-07T03:28:39.997Z,100420.48
2019-04-07T03:31:15.400Z,100420.07
2019-04-07T03:33:49.817Z,100417.91
2019-04-07T03:36:27.961Z,100416.57
2019-04-07T03:38:59.105Z,100415.19
2019-04-07T03:41:34.898Z,100414.13
2019-04-07T03:44:09.264Z,100410.41
2019-04-07T03:46:43.109Z,100411.85
2019-04-07T03:49:17.044Z,100409.80
2019-04-07T03:51:51.397Z,100410.37
2019-04-07T03:54:24.876Z,100406.20
2019-04-07T03:56:58.456Z,100407.58
2019-04-07T03:59:33.578Z,100408.90
2019-04-07T04:02:08.595Z,100407.63
2019-04-07T04:04:42.025Z,100407.07
2019-04-07T04:07:26.610Z,100401.41
2019-04-07T04:09:50.416Z,100405.72
2019-04-07T04:12:24.357Z,100403.96
2019-04-07T04:14:59.775Z,100409.20
2019-04-07T04:17:33.022Z,100401.51
2019-04-07T04:20:06.850Z,100402.28
2019-04-07T04:22:40.257Z,100406.48
2019-04-07T04:25:13.589Z,100404.32
2019-04-07T04:27:46.909Z,100405.17
2019-04-07T04:30:21.318Z,100401.36
2019-04-07T04:32:55.433Z,100399.25
2019-04-07T04:35:28.847Z,100401.57
2019-04-07T04:38:02.247Z,100403.20
2019-04-07T04:40:36.192Z,100401.27
2019-04-07T04:43:10.398Z,100410.81
2019-04-07T04:45:44.822Z,100401.67
2019-04-07T04:48:19.552Z,100414.45
2019-04-07T04:50:53.088Z,100413.54
2019-04-07T04:53:26.885Z,100409.51
2019-04-07T04:56:00.970Z,100411.70
2019-04-07T04:58:34.915Z,100419.56
2019-04-07T05:01:09.683Z,100421.48
2019-04-07T05:03:43.061Z,100419.06
2019-04-07T05:06:16.596Z,100421.35
2019-04-07T05:08:50.026Z,100421.35
2019-04-07T05:11:23.891Z,100418.84
2019-04-07T05:13:58.123Z,100425.52
2019-04-07T05:16:32.119Z,100424.77
2019-04-07T05:19:07.318Z,100421.75
2019-04-07T05:21:40.633Z,100425.62
2019-04-07T05:24:14.656Z,100428.62
2019-04-07T05:26:48.085Z,100429.59
2019-04-07T05:29:21.413Z,100433.86
2019-04-07T05:31:54.733Z,100434.44
2019-04-07T05:34:28.132Z,100436.02
2019-04-07T05:37:02.202Z,100439.64
2019-04-07T05:39:36.262Z,100449.23
2019-04-07T05:42:09.885Z,100451.52
2019-04-07T05:44:44.837Z,100454.59
2019-04-07T05:47:18.916Z,100455.04
2019-04-07T05:49:57.365Z,100459.09
2019-04-07T05:52:27.414Z,100456.94
2019-04-07T05:55:01.321Z,100458.70
2019-04-07T05:57:35.915Z,100467.89
2019-04-07T06:00:15.685Z,100466.71
2019-04-07T06:02:47.104Z,100465.41
2019-04-07T06:05:21.239Z,100467.49
2019-04-07T06:07:54.815Z,100468.70
2019-04-07T06:10:29.750Z,100469.67
2019-04-07T06:13:04.110Z,100468.87
2019-04-07T06:15:39.265Z,100469.67
2019-04-07T06:18:12.655Z,100466.94
2019-04-07T06:20:46.688Z,100472.97
2019-04-07T06:23:22.138Z,100470.50
2019-04-07T06:25:57.311Z,100468.59
2019-04-07T06:28:30.222Z,100474.77
2019-04-07T06:31:03.808Z,100471.66
2019-04-07T06:33:38.252Z,100475.17
2019-04-07T06:36:13.158Z,100480.91
2019-04-07T06:38:51.439Z,100481.41
2019-04-07T06:41:21.898Z,100474.83
2019-04-07T06:44:08.216Z,100475.34
2019-04-07T06:46:30.645Z,100478.02
2019-04-07T06:49:04.509Z,100479.42
2019-04-07T06:51:39.829Z,100472.03
2019-04-07T06:54:13.428Z,100477.31
2019-04-07T06:56:46.913Z,100480.32
2019-04-07T06:59:22.011Z,100479.47
2019-04-07T07:01:59.165Z,100483.86
2019-04-07T07:04:32.291Z,100485.14
2019-04-07T07:07:06.499Z,100483.41
2019-04-07T07:09:41.611Z,100485.56
2019-04-07T07:12:22.579Z,100486.22
2019-04-07T07:14:50.801Z,100490.94
2019-04-07T07:17:24.402Z,100492.83
2019-04-07T07:20:01.405Z,100492.88
2019-04-07T07:22:33.636Z,100497.03
2019-04-07T07:25:09.959Z,100498.45
2019-04-07T07:27:43.050Z,100502.77
2019-04-07T07:30:18.360Z,100506.22
2019-04-07T07:32:52.053Z,100502.25
2019-04-07T07:35:25.652Z,100500.95
2019-04-07T07:37:59.777Z,100500.89
2019-04-07T07:40:35.115Z,100498.69
2019-04-07T07:43:08.666Z,100499.45
2019-04-07T07:45:47.008Z,100499.40
2019-04-07T07:48:18.514Z,100499.73
2019-04-07T07:50:52.118Z,100497.06
2019-04-07T07:53:28.348Z,100503.88
2019-04-07T07:56:02.115Z,100502.06
2019-04-07T07:58:35.691Z,100505.13
2019-04-07T08:01:11.834Z,100506.89
2019-04-07T08:03:44.307Z,100508.59
2019-04-07T08:06:19.382Z,100507.11
2019-04-07T08:08:52.771Z,100502.58
2019-04-07T08:11:26.384Z,100506.91
2019-04-07T08:13:59.739Z,100506.32
2019-04-07T08:16:33.566Z,100509.79
2019-04-07T08:19:09.437Z,100512.98
2019-04-07T08:21:43.637Z,100511.28
2019-04-07T08:24:19.177Z,100509.52
2019-04-07T08:26:56.297Z,100517.63
2019-04-07T08:29:30.138Z,100515.58
2019-04-07T08:32:04.247Z,100521.05
2019-04-07T08:34:37.621Z,100521.42
2019-04-07T08:37:14.392Z,100520.52
2019-04-07T08:39:46.197Z,100515.29
2019-04-07T08:42:20.028Z,100521.72
2019-04-07T08:44:57.243Z,100522.33
2019-04-07T08:47:30.269Z,100524.44
2019-04-07T08:50:07.213Z,100526.15
2019-04-07T08:52:42.767Z,100521.50
2019-04-07T08:55:15.613Z,100524.97
2019-04-07T08:57:49.459Z,100523.19
2019-04-07T09:00:22.922Z,100527.56
2019-04-07T09:03:03.665Z,100523.93
2019-04-07T09:05:31.384Z,100530.87
2019-04-07T09:08:07.313Z,100530.29
2019-04-07T09:10:41.228Z,100529.33
2019-04-07T09:13:14.587Z,100533.43
2019-04-07T09:15:49.669Z,100532.95
2019-04-07T09:18:23.300Z,100528.07
2019-04-07T09:20:57.219Z,100533.30
2019-04-07T09:23:31.245Z,100533.75
2019-04-07T09:26:10.075Z,100536.77
2019-04-07T09:28:40.908Z,100538.87
2019-04-07T09:31:14.372Z,100545.39
2019-04-07T09:33:49.085Z,100548.80
2019-04-07T09:36:23.376Z,100543.63
2019-04-07T09:38:59.333Z,100546.19
2019-04-07T09:41:33.442Z,100547.90
2019-04-07T09:44:06.922Z,100547.39
2019-04-07T09:46:44.771Z,100539.15
2019-04-07T09:49:15.468Z,100543.98
2019-04-07T09:51:49.537Z,100543.63
2019-04-07T09:54:23.541Z,100551.42
2019-04-07T09:56:57.272Z,100548.19
2019-04-07T09:59:30.756Z,100543.85
2019-04-07T10:02:06.235Z,100538.16
2019-04-07T10:04:42.280Z,100540.78
2019-04-07T10:07:16.029Z,100547.27
2019-04-07T10:09:50.182Z,100540.33
2019-04-07T10:12:24.819Z,100543.39
2019-04-07T10:14:58.332Z,100543.39
2019-04-07T10:17:31.801Z,100542.56
2019-04-07T10:20:05.242Z,100550.41
2019-04-07T10:22:38.535Z,100544.70
2019-04-07T10:25:12.062Z,100535.12
2019-04-07T10:27:46.401Z,100538.56
2019-04-07T10:30:20.111Z,100532.50
2019-04-07T10:32:53.512Z,100536.94
2019-04-07T10:35:27.080Z,100536.02
2019-04-07T10:38:00.831Z,100536.42
2019-04-07T10:40:40.154Z,100534.27
2019-04-07T10:43:19.689Z,100539.09
2019-04-07T10:45:53.836Z,100534.77
2019-04-07T10:48:28.672Z,100536.53
2019-04-07T10:51:02.215Z,100538.75
2019-04-07T10:53:35.559Z,100537.95
2019-04-07T10:56:08.989Z,100535.81
2019-04-07T10:58:43.626Z,100534.55
2019-04-07T11:01:19.406Z,100537.67
2019-04-07T11:03:54.730Z,100542.91
2019-04-07T11:06:28.411Z,100538.64
2019-04-07T11:09:01.969Z,100536.83
2019-04-07T11:11:36.490Z,100538.98
2019-04-07T11:14:11.309Z,100533.41
2019-04-07T11:16:45.283Z,100527.78
2019-04-07T11:19:18.718Z,100529.94
2019-04-07T11:21:52.057Z,100533.01
2019-04-07T11:24:25.348Z,100529.09
2019-04-07T11:26:59.798Z,100529.03
2019-04-07T11:29:33.711Z,100534.73
2019-04-07T11:32:08.662Z,100528.66
2019-04-07T11:34:43.724Z,100531.70
2019-04-07T11:37:17.811Z,100528.20
2019-04-07T11:39:51.306Z,100527.34
2019-04-07T11:42:25.725Z,100532.50
2019-04-07T11:44:59.682Z,100532.05
2019-04-07T11:47:33.961Z,100530.69
2019-04-07T11:50:10.463Z,100536.83
2019-04-07T11:52:43.897Z,100528.53
2019-04-07T11:55:17.360Z,100528.98
2019-04-07T11:58:06.561Z,100530.69
2019-04-07T12:00:28.084Z,100534.61
2019-04-07T12:03:01.714Z,100521.53
2019-04-07T12:05:35.048Z,100528.07
2019-04-07T12:08:08.407Z,100525.41
2019-04-07T12:10:54.204Z,100527.56
2019-04-07T12:13:16.920Z,100524.87
2019-04-07T12:15:50.860Z,100530.00
2019-04-07T12:18:24.401Z,100534.27
2019-04-07T12:21:00.955Z,100527.70
2019-04-07T12:23:32.968Z,100528.45
2019-04-07T12:26:07.414Z,100528.31
2019-04-07T12:28:41.197Z,100528.70
2019-04-07T12:31:14.675Z,100533.02
2019-04-07T12:33:48.640Z,100533.47
2019-04-07T12:36:26.653Z,100532.56
2019-04-07T12:38:57.463Z,100534.98
2019-04-07T12:41:32.238Z,100531.67
2019-04-07T12:44:06.660Z,100533.59
2019-04-07T12:46:40.578Z,100536.01
2019-04-07T12:49:14.468Z,100534.73
2019-04-07T12:51:52.453Z,100533.14
2019-04-07T12:54:24.141Z,100528.98
2019-04-07T12:56:57.940Z,100523.91
2019-04-07T12:59:31.477Z,100533.08
2019-04-07T13:02:07.866Z,100522.75
2019-04-07T13:04:40.757Z,100529.38
2019-04-07T13:07:18.409Z,100524.17
2019-04-07T13:09:49.870Z,100528.19
2019-04-07T13:12:24.731Z,100526.44
2019-04-07T13:14:59.043Z,100525.48
2019-04-07T13:17:35.823Z,100525.75
2019-04-07T13:20:08.751Z,100529.17
2019-04-07T13:22:42.240Z,100524.11
2019-04-07T13:25:18.665Z,100529.78
2019-04-07T13:27:50.591Z,100536.77
2019-04-07T13:30:24.094Z,100534.06
2019-04-07T13:33:00.707Z,100533.63
2019-04-07T13:35:32.563Z,100531.18
2019-04-07T13:38:06.624Z,100536.98
2019-04-07T13:40:45.172Z,100536.37
2019-04-07T13:43:16.499Z,100536.19
2019-04-07T13:45:50.663Z,100535.84
2019-04-07T13:48:24.109Z,100540.65
2019-04-07T13:50:57.722Z,100545.68
2019-04-07T13:53:31.854Z,100544.41
2019-04-07T13:56:07.294Z,100539.88
2019-04-07T13:58:41.098Z,100536.02
2019-04-07T14:01:18.028Z,100536.73
2019-04-07T14:03:50.403Z,100529.41
2019-04-07T14:06:23.820Z,100527.45
2019-04-07T14:08:58.814Z,100521.81
2019-04-07T14:11:32.811Z,100524.63
2019-04-07T14:14:06.923Z,100522.63
2019-04-07T14:16:41.249Z,100527.48
2019-04-07T14:19:14.843Z,100523.44
2019-04-07T14:21:48.288Z,100528.15
2019-04-07T14:24:21.863Z,100525.38
2019-04-07T14:26:55.242Z,100522.95
2019-04-07T14:29:29.565Z,100523.48
2019-04-07T14:32:04.518Z,100522.69
2019-04-07T14:34:39.049Z,100519.30
2019-04-07T14:37:12.666Z,100519.86
2019-04-07T14:39:46.611Z,100521.64
2019-04-07T14:42:19.910Z,100523.06
2019-04-07T14:44:54.300Z,100521.36
2019-04-07T14:47:28.430Z,100519.59
2019-04-07T14:50:02.118Z,100521.56
2019-04-07T14:52:36.119Z,100519.35
2019-04-07T14:55:09.676Z,100519.16
2019-04-07T14:57:43.676Z,100518.69
2019-04-07T15:00:17.309Z,100520.80
2019-04-07T15:02:51.067Z,100518.26
2019-04-07T15:05:25.365Z,100526.53
2019-04-07T15:07:59.983Z,100521.19
2019-04-07T15:10:36.143Z,100519.89
2019-04-07T15:13:10.691Z,100523.81
2019-04-07T15:15:44.303Z,100520.88
2019-04-07T15:18:18.663Z,100524.00
2019-04-07T15:20:52.762Z,100524.08
2019-04-07T15:23:29.451Z,100526.80
2019-04-07T15:26:01.165Z,100529.09
2019-04-07T15:28:34.600Z,100524.82
2019-04-07T15:31:08.579Z,100523.12
2019-04-07T15:33:42.411Z,100523.17
2019-04-07T15:36:18.706Z,100522.73
2019-04-07T15:38:55.425Z,100519.27
2019-04-07T15:41:27.605Z,100518.41
2019-04-07T15:44:05.074Z,100518.28
2019-04-07T15:46:36.645Z,100519.09
2019-04-07T15:49:10.610Z,100520.72
2019-04-07T15:51:45.180Z,100515.77
2019-04-07T15:54:22.383Z,100524.39
2019-04-07T15:56:53.994Z,100523.41
2019-04-07T15:59:29.398Z,100526.75
2019-04-07T16:02:02.460Z,100527.03
2019-04-07T16:04:36.229Z,100522.98
2019-04-07T16:07:10.261Z,100524.63
2019-04-07T16:09:52.804Z,100521.98
2019-04-07T16:12:20.822Z,100527.50
2019-04-07T16:14:54.718Z,100535.30
2019-04-07T16:17:28.779Z,100533.50
2019-04-07T16:20:03.673Z,100531.29
2019-04-07T16:22:38.975Z,100529.07
2019-04-07T16:25:13.057Z,100533.93
2019-04-07T16:27:47.605Z,100540.12
2019-04-07T16:30:21.580Z,100545.92
2019-04-07T16:32:55.179Z,100539.52
2019-04-07T16:35:28.500Z,100543.16
2019-04-07T16:38:02.910Z,100545.45
2019-04-07T16:40:36.364Z,100542.52
2019-04-07T16:43:14.481Z,100542.63
2019-04-07T16:45:45.904Z,100551.86
2019-04-07T16:48:20.869Z,100555.45
2019-04-07T16:50:55.271Z,100554.70
2019-04-07T16:53:30.955Z,100562.58
2019-04-07T16:56:05.301Z,100564.84
2019-04-07T16:58:40.060Z,100564.09
2019-04-07T17:01:14.282Z,100564.16
2019-04-07T17:03:48.813Z,100566.44
2019-04-07T17:06:22.948Z,100568.19
2019-04-07T17:08:56.295Z,100569.61
2019-04-07T17:11:30.073Z,100574.00
2019-04-07T17:14:04.288Z,100573.59
2019-04-07T17:16:40.726Z,100570.58
2019-04-07T17:19:13.176Z,100575.02
2019-04-07T17:21:47.039Z,100573.77
2019-04-07T17:24:24.921Z,100575.13
2019-04-07T17:26:56.446Z,100582.12
2019-04-07T17:29:32.488Z,100578.30
2019-04-07T17:32:06.174Z,100579.16
2019-04-07T17:34:41.663Z,100577.92
2019-04-07T17:37:16.288Z,100573.65
2019-04-07T17:39:49.912Z,100582.80
2019-04-07T17:42:26.195Z,100580.28
2019-04-07T17:44:59.366Z,100582.05
2019-04-07T17:47:33.553Z,100588.99
2019-04-07T17:50:09.025Z,100585.98
2019-04-07T17:52:42.668Z,100592.16
2019-04-07T17:55:15.974Z,100596.13
2019-04-07T17:57:49.596Z,100604.02
2019-04-07T18:00:23.684Z,100607.95
2019-04-07T18:03:01.535Z,100605.44
2019-04-07T18:05:32.463Z,100611.56
2019-04-07T18:08:09.065Z,100616.80
2019-04-07T18:10:40.892Z,100619.05
2019-04-07T18:13:16.605Z,100623.03
2019-04-07T18:15:49.913Z,100624.80
2019-04-07T18:18:25.928Z,100633.13
2019-04-07T18:20:58.531Z,100631.39
2019-04-07T18:23:34.640Z,100545.80
2019-04-07T18:26:09.898Z,100640.59
2019-04-07T18:28:43.470Z,100638.48
2019-04-07T18:31:17.865Z,100646.81
2019-04-07T18:33:53.642Z,100649.42
2019-04-07T18:36:27.620Z,100651.20
2019-04-07T18:39:01.124Z,100659.98
2019-04-07T18:41:36.372Z,100660.44
2019-04-07T18:44:10.823Z,100661.83
2019-04-07T18:46:47.807Z,100667.91
2019-04-07T18:49:20.293Z,100675.79
2019-04-07T18:51:53.789Z,100677.97
2019-04-07T18:54:30.752Z,100677.11
2019-04-07T18:57:03.959Z,100682.88
2019-04-07T18:59:37.581Z,100685.08
2019-04-07T19:02:14.884Z,100692.51
2019-04-07T19:04:46.055Z,100690.34
2019-04-07T19:07:19.481Z,100697.30
2019-04-07T19:10:05.042Z,100697.34
2019-04-07T19:12:30.014Z,100702.61
2019-04-07T19:15:08.883Z,100712.20
2019-04-07T19:17:40.544Z,100713.99
2019-04-07T19:20:15.054Z,100714.04
2019-04-07T19:22:50.702Z,100722.73
2019-04-07T19:25:23.538Z,100717.11
2019-04-07T19:28:00.153Z,100713.28
2019-04-07T19:30:32.245Z,100713.78
2019-04-07T19:33:05.565Z,100721.17
2019-04-07T19:35:41.213Z,100724.23
2019-04-07T19:38:16.258Z,100719.50
2019-04-07T19:40:49.388Z,100725.17
2019-04-07T19:43:22.910Z,100726.52
2019-04-07T19:45:57.039Z,100719.59
2019-04-07T19:48:30.900Z,100726.11
2019-04-07T19:51:04.273Z,100730.07
2019-04-07T19:53:38.633Z,100733.55
2019-04-07T19:56:12.521Z,100728.33
2019-04-07T19:58:45.849Z,100726.61
2019-04-07T20:01:19.346Z,100727.52
2019-04-07T20:03:52.665Z,100729.22
2019-04-07T20:06:26.272Z,100729.63
2019-04-07T20:09:00.085Z,100725.31
2019-04-07T20:11:35.791Z,100731.96
2019-04-07T20:14:12.529Z,100729.48
2019-04-07T20:16:46.135Z,100729.30
2019-04-07T20:19:19.441Z,100736.49
2019-04-07T20:21:55.155Z,100728.42
2019-04-07T20:24:29.486Z,100732.98
2019-04-07T20:27:03.096Z,100734.66
2019-04-07T20:29:41.486Z,100740.98
2019-04-07T20:32:11.581Z,100745.00
2019-04-07T20:34:45.104Z,100749.77
2019-04-07T20:37:18.522Z,100748.87
2019-04-07T20:39:51.967Z,100751.52
2019-04-07T20:42:25.723Z,100750.78
2019-04-07T20:45:04.240Z,100755.30
2019-04-07T20:47:34.626Z,100750.08
2019-04-07T20:50:10.725Z,100752.72
2019-04-07T20:52:43.414Z,100755.73
2019-04-07T20:55:17.861Z,100756.19
2019-04-07T20:57:53.923Z,100757.86
2019-04-07T21:00:26.485Z,100761.21
2019-04-07T21:03:14.458Z,100760.36
2019-04-07T21:05:35.628Z,100766.45
2019-04-07T21:08:08.917Z,100757.81
2019-04-07T21:10:42.295Z,100757.69
2019-04-07T21:13:17.389Z,100763.31
2019-04-07T21:15:50.677Z,100756.34
2019-04-07T21:18:24.249Z,100762.45
2019-04-07T21:20:57.672Z,100763.39
2019-04-07T21:23:31.617Z,100761.19
2019-04-07T21:26:05.602Z,100763.52
2019-04-07T21:28:39.189Z,100765.15
2019-04-07T21:31:15.995Z,100763.44
2019-04-07T21:33:48.202Z,100762.09
2019-04-07T21:36:21.829Z,100767.34
2019-04-07T21:38:56.358Z,100770.85
2019-04-07T21:41:30.672Z,100770.92
2019-04-07T21:44:04.175Z,100768.24
2019-04-07T21:46:37.605Z,100772.97
2019-04-07T21:49:11.903Z,100772.12
2019-04-07T21:51:46.557Z,100762.62
2019-04-07T21:54:21.481Z,100771.30
2019-04-07T21:56:56.010Z,100769.17
2019-04-07T21:59:31.420Z,100770.48
2019-04-07T22:02:09.254Z,100773.66
2019-04-07T22:04:40.414Z,100770.11
2019-04-07T22:07:13.922Z,100777.86
2019-04-07T22:09:50.720Z,100770.03
2019-04-07T22:12:28.666Z,100767.91
2019-04-07T22:14:59.164Z,100772.27
2019-04-07T22:17:36.753Z,100768.80
2019-04-07T22:20:09.167Z,100771.05
2019-04-07T22:22:44.350Z,100775.84
2019-04-07T22:25:28.926Z,100775.89
2019-04-07T22:28:05.616Z,100781.95
2019-04-07T22:30:42.347Z,100780.17
2019-04-07T22:33:15.823Z,100777.64
2019-04-07T22:35:49.259Z,100775.89
2019-04-07T22:38:23.760Z,100780.24
2019-04-07T22:40:58.397Z,100779.43
2019-04-07T22:43:32.011Z,100772.09
2019-04-07T22:46:16.500Z,100775.48
2019-04-07T22:48:40.528Z,100776.74
2019-04-07T22:51:14.873Z,100778.50
2019-04-07T22:53:48.404Z,100778.98
2019-04-07T22:56:22.274Z,100777.27
2019-04-07T22:58:56.213Z,100776.45
2019-04-07T23:01:29.660Z,100772.57
2019-04-07T23:04:03.518Z,100778.23
2019-04-07T23:06:36.939Z,100773.88
2019-04-07T23:09:10.349Z,100769.15
2019-04-07T23:11:44.132Z,100772.16
2019-04-07T23:14:17.867Z,100778.27
2019-04-07T23:16:52.017Z,100777.42
2019-04-07T23:19:25.491Z,100779.20
2019-04-07T23:21:58.928Z,100778.34
2019-04-07T23:24:32.266Z,100776.19
2019-04-07T23:27:06.192Z,100775.78
2019-04-07T23:29:39.578Z,100777.08
2019-04-07T23:32:12.884Z,100779.24
2019-04-07T23:34:46.283Z,100778.87
2019-04-07T23:37:19.611Z,100783.19
2019-04-07T23:39:53.768Z,100781.92
2019-04-07T23:42:27.186Z,100777.19
2019-04-07T23:45:00.879Z,100782.81
2019-04-07T23:47:34.148Z,100782.84
2019-04-07T23:50:07.661Z,100696.83
2019-04-07T23:52:41.196Z,100776.74
2019-04-07T23:55:15.000Z,100772.87
2019-04-07T23:57:48.747Z,100778.08
